Logo AVAMET
Benvolgut visitant, si us plau, ingressa Recuperar contrasenya
AVAMET paisatges

Elx Vallverda Ermita Vella

Dades diàries. Acumulats / Últims 30 dies disponibles

Data Temperatura (°C) Humitat rel. (%) Pressió rel. (hPa) Vent (km/h) Precipitació
Mínima Mitjana Màxima Amplitud
tèrmica
Mínima Mitjana Màxima Mínima Mitjana Màxima Predom. Mitjana Ràfega
màxima
Total
(mm)
Índex-n
Mínima Mitjana Màxima Mínima Mitjana Màxima n
0 a 1
P0 max
mm 5'
Dades mensuals acumulades fins l'últim dia disponible
10/2020 8,8 12,9 17,7 18,4 20,8 25,0 32,2 23,4 22 67 98 991 1.016 1.027   2,1 46,7 1,9
Dades anuals acumulades fins l'últim dia disponible
2020 2,2 14,3 25,3 19,5 11,4 24,9 36,3 34,1 17 73 99 991 1.017 1.035   2,5 48,3 302,4
Últims 30 dies disponibles
30-10-2020 9,9     16,4     25,2 15,3 38 80 98 1.024 1.025 1.026 SO 0,7 11,3 0,4
29-10-2020 10,9     16,9     23,2 12,3 61 80 95 1.022 1.025 1.027 NNW 1,0 16,1 0,0
28-10-2020 12,4     17,7     25,0 12,6 40 62 81 1.018 1.020 1.023 WSW 2,3 19,3 0,0
27-10-2020 9,2     15,6     22,7 13,5 30 53 70 1.017 1.019 1.020 WSW 1,4 17,7 0,0
26-10-2020 13,3     17,4     20,8 7,5 34 50 86 1.010 1.015 1.020 NNW 5,1 30,6 0,0
25-10-2020 10,6     16,9     23,1 12,5 42 71 90 1.012 1.017 1.022 SSE 2,1 24,1 0,0
24-10-2020 14,1     18,1     24,7 10,6 36 64 89 1.021 1.023 1.026 WSW 2,7 32,2 0,0
23-10-2020 14,6     18,9     24,8 10,2 40 76 96 1.017 1.020 1.024 WSW 1,6 25,7 0,2
22-10-2020 17,7     19,4     22,3 4,6 70 87 93 1.012 1.014 1.017 NNW 0,2 4,8 0,6
21-10-2020 17,3     20,8     26,2 8,9 55 75 88 1.007 1.010 1.013 SSE 2,4 29,0 0,4
20-10-2020 12,3     17,9     23,8 11,5 73 88 96 1.008 1.014 1.019 ENE 1,3 17,7 0,0
19-10-2020 9,7     16,8     23,3 13,6 61 81 96 1.019 1.020 1.021 ENE 0,8 16,1 0,0
18-10-2020 9,3     16,3     22,7 13,4 59 79 94 1.018 1.020 1.021 NNW 1,3 14,5 0,0
17-10-2020 8,8     15,7     23,7 14,9 28 71 90 1.015 1.017 1.018 SSE 1,9 27,4 0,0
16-10-2020 9,7     15,7     21,3 11,6 30 57 82 1.015 1.017 1.018 WSW 2,1 22,5 0,0
15-10-2020 11,4     17,6     24,5 13,1 22 49 87 1.013 1.014 1.016 WSW 2,4 25,7 0,0
14-10-2020 12,4     17,7     26,0 13,6 34 65 84 1.008 1.009 1.013 ENE 2,4 29,0 0,0
13-10-2020 10,3     18,4     28,3 18,0 30 56 81 1.011 1.014 1.020 SSE 2,4 30,6 0,0
12-10-2020 12,1     16,7     22,2 10,1 33 53 79 1.019 1.020 1.022 SSE 2,6 20,9 0,0
11-10-2020 14,5     18,6     22,3 7,8 55 72 91 1.019 1.020 1.022 ENE 1,9 20,9 0,0
10-10-2020 16,4     20,3     25,2 8,8 60 81 94 1.019 1.021 1.023 NNW 0,6 14,5 0,0
09-10-2020 15,6     20,4     25,7 10,1 62 82 96 1.020 1.021 1.023 SSE 1,3 14,5 0,0
08-10-2020 16,7     21,2     25,8 9,1 65 76 94 1.022 1.023 1.024 NNW 1,9 16,1 0,0
07-10-2020 13,5     21,4     32,2 18,7 31 63 81 1.019 1.020 1.022 WSW 1,1 19,3 0,0
06-10-2020 11,4     19,6     28,7 17,3 30 56 80 1.018 1.021 1.022 WSW 2,7 29,0 0,0
05-10-2020 17,2     20,7     26,0 8,8 26 49 73 1.012 1.015 1.020 NNW 3,4 25,7 0,0
04-10-2020 10,8     18,3     26,4 15,6 29 52 70 1.007 1.010 1.012 WSW 2,6 33,8 0,0
03-10-2020 13,5     18,3     24,1 10,6 24 44 65 1.002 1.006 1.011 WSW 3,4 29,0 0,0
02-10-2020 14,7     21,2     29,4 14,7 37 53 85 991 999 1.005 WSW 4,0 46,7 0,3
01-10-2020 16,3     22,2     30,3 14,0 37 75 95 1.005 1.009 1.013 SSE 2,6 29,0 0,0
Últims 13 mesos disponibles
10/2020 10,3 14,1 17,2 19,8 22,2 26,7 32,2 21,9 44 62 82 999 1.015 1.023 WSW 2,3 46,7 0,0
09/2020 13,3 18,3 21,7 23,5 25,1 28,7 31,9 18,6 36 69 85 1.011 1.016 1.022 NNW 2,2 38,6 3,6
08/2020 16,1 21,4 25,3 26,7 27,0 32,0 36,3 20,2 47 73 84 1.002 1.013 1.018 ENE 2,5 37,0 22,4
07/2020 18,4 21,1 23,8 26,3 28,8 31,1 34,7 16,3 59 71 84 1.011 1.015 1.020 ENE 3,2 40,2 0,2
06/2020 15,0 17,8 21,5 23,1 21,6 28,2 31,7 16,7 46 72 86 1.004 1.014 1.020 ENE 3,0 45,1 24,4
05/2020 11,5 15,0 18,8 20,7 21,4 25,9 31,8 20,3 54 71 84 1.005 1.016 1.025 NNE 3,2 40,2 31,4
04/2020 7,5 11,6 15,3 16,2 17,4 21,0 27,1 19,6 58 78 88 1.006 1.015 1.025 NNE 2,8 41,8 31,6
03/2020 6,2 10,3 15,6 14,7 11,4 19,8 26,1 19,9 43 72 91 1.008 1.016 1.024 NNE 4,5 48,3 89,6
02/2020 4,0 8,4 12,4 13,9 15,1 20,3 27,9 23,9 51 78 94 1.014 1.025 1.033 SW 1,8 27,4 5,2
01/2020 2,2 6,1 14,0 10,9 13,6 16,6 21,4 19,2 63 80 92 1.013 1.025 1.032 0,0 92,1
12/2019 5,2 9,4 15,4 13,6 14,2 18,2 22,9 17,7 46 75 91 1.005 1.018 1.032 2,8 53,1 53,4
11/2019 5,3 10,7 18,1 15,1 14,2 19,9 27,8 22,5 46 63 94 1.000 1.011 1.018 WSW 3,0 49,9 19,6
10/2019 9,6 14,4 20,3 19,5 15,9 25,3 30,1 20,5 51 78 94 1.008 1.016 1.021 WSW 0,4 32,2 45,4
Tots els anys disponibles
2019 2,2 13,5 25,1 18,8 14,2 24,3 36,5 34,3 35 71 95 997 1.016 1.032 E 2,1 53,1 525,4
Temperatura (°C)
Humitat relativa (%)
Velocitat del vent i ràfega màxima (km/h)
Direcció del vent (°)
Pressió (hPa)
Precipitació (mm)
Nota sobre les dades: s'avisa a l'usuari de la provisionalitat i no oficialitat d'aquestes dades
Logo AVAMET blanc
Web allotjada a Sollutia
Llicència de Creative CommonsLa web d'AVAMET i els seus continguts estan subjectes a una llicència de
Reconeixement - No Comercial - Compartir igual
Avís legal - Política de privacitat - Política de cookies
NOVES ESTACIONS: El Fondó dels Frares (Estació pròpia d'AVAMET nº34), Agres - Foia Ampla de Mariola (Socis), Beniarjó (Inforatge), Sueca - Mareny de Barraquetes (Inforatge), La Vilavella - Centre (Ajuntament Soci), Alfondeguilla (Soci), Santa Magdalena de Polpís (Soci), Benafigos (Ajuntament/Socis), Carlet - Ajuntament (Inforatge) - - -